aviador You're here:

PAKH Decoded Metar

in _UNIDENTIFIED
Report Time2018-01-21 17:56:00
UTC Time2018-01-21 18:31:15
Flight Rules vfr VFR
Wind330° at 20 Gusting to 24 kt
W.Decomp.*RWY 04: 0.7 kt HW 20 kt LCW
W.Rank330° ranks 13
Current wind is above 330° avg. (11.6)
Visibility9999 m
Phenomena:N/A
Clouds:N/A
Expected CloudBase > 1,200 ft AGL from Temp-Dew spread
CeilingNone
Temp-8°C (ISA -23)
Dew Point-11°C (79% RH)
AAT-18.3°C
QNH999 hPa
Density Alt-2,283 ft
Elevation46 ft
Report Wrong Elevation
Raw Report
PAKH 211756Z AUTO 33020G24KT 9SM CLR M08/M11 A2949 RMK AO2 PK WND
32028/1703 SNE54 SLP986 P0000 60000 T10831111 11061 21083
55007 FZRANO $=

Extra information for PAKH:More info

Social comments